Airfield :







YOU CAN JOIN US ON...

 
LOGIN :

Register | Disclaimer

   EN    FR    IT 

 









Legend :    VFR   Marginal VFR   IFR   Intensive IFR   Very Intensive IFR
Visi :
Ceiling :
>= 8 km
>= 3000ft
5 to 8 km
1000 to 3000 ft
1500m to 5 km
500 to 1000 ft
800 to 1500m
200 to 500 ft
< 800m
< 200 ft
Symbols :   Thunderstorms  Fog  Heavy snow  Heavy precipitations  Wind > 20 kt






- Airport Elevation : 180 ft
- IATA code : YZV


CYZV - Sept-Iles

CURRENT METAR :
  • 302100Z 20009G17KT 20SM -RA SCT007 SCT030 BKN110 14/14 A2915 RMK SC4SC1AC3 SC TR VIS N-E 5 SLP873 DENSITY ALT 1000FT

EXPIRED METARs :
  • 302052Z 20012G18KT 10SM -RA SCT005 BKN025 BKN110 14/14 A2914 RMK SC4SC2AC1 VIS N-E 5 SLP870 DENSITY ALT 1100FT
  • 302045Z 19012KT 5SM -RA BR OVC008 14/14 A2916 RMK SC8 PRESRR SLP876 DENSITY ALT 1000FT
  • 302034Z 16010KT 100V170 2SM R09/3500VP6000FT/U BR BKN002 OVC008 15/15 A2913 RMK SC7SC1 PRESRR SLP868 DENSITY ALT 1200FT
  • 302011Z CCA 10008KT 1/2SM R09/3000FT/N FG VV002 15/15 A2912 RMK FG8 SLP864 DENSITY ALT 1100FT
  • 302003Z 11008KT 1/4SM R09/2800V5000FT/D FG VV001 15/15 A2913 RMK FG8 SLP866 DENSITY ALT 1100FT
  • 301920Z 10007KT 2SM -RA BR VV002 14/14 A2913 RMK FG8 SLP868 DENSITY ALT 1000FT
  • 301906Z 11010KT 1SM R09/6000FT/U -RA BR VV002 13/13 A2914 RMK FG8 PRESFR SLP872 DENSITY ALT 900FT
  • 301850Z 15015G32KT 2SM RA BR VV005 13/13 A2917 RMK FG8 PRESRR SLP882 DENSITY ALT 900FT
  • 301836Z 13018G31KT 1SM R09/P6000FT/D RA BR VV004 15/15 A2916 RMK FG8 PRESRR SLP877 DENSITY ALT 1100FT
  • 301826Z 12019G30KT 3SM -RA BR BKN002 OVC050 14/14 A2909 RMK SC7SC1 PRESFR SLP854 DENSITY ALT 1100FT
  • 301807Z 10019G34KT 2 1/2SM -RA BR BKN005 OVC050 14/14 A2912 RMK SC6SC1 VIS E 1 PRESFR SLP864 DENSITY ALT 1000FT

TAF AMD TAF CYZV
Valid from the 30 at 20:00 until the 01 at 18:00 UTC


302008Z 3020/0118 11008KT WS015/14045KT 1/2SM RA FG VV001
TEMPO 3020/3022 6SM -RA BR OVC008
FM302200 23020G30KT 2SM BR BKN006
TEMPO 3022/0103 P6SM NSW BKN015
FM010300 24015G25KT P6SM BKN025
BECMG 0104/0106 23012G22KT
BECMG 0108/0110 21012KT RMK NXT FCST BY 010000Z
CZUL FIR / North America



MET'MAP, your aeronautical weather chart ! - Copyright ORBIFLY December 2007 - Disclaimer

ORBIFLY MET'MAP TEAM :

Programming & Development : Alexandra Zaïnal
Concept & original design : Baudouin d'Aumeries
Assistance for programming : Marc-Olivier Méhu
Technical & hardware support : Manuel Goepfert

Contact : metmap@orbifly.com




SOURCES & CREDITS :

   NOAA